sensor_id;sensor_type;location;lat;lon;timestamp;P1;durP1;ratioP1;P2;durP2;ratioP2
9524;SDS011;15940;48.734;9.112;2024-01-07T00:01:47;15.10;;;11.23;;
9524;SDS011;15940;48.734;9.112;2024-01-07T00:04:16;13.57;;;10.70;;
9524;SDS011;15940;48.734;9.112;2024-01-07T00:06:42;17.53;;;12.23;;
9524;SDS011;15940;48.734;9.112;2024-01-07T00:09:10;15.53;;;10.97;;
9524;SDS011;15940;48.734;9.112;2024-01-07T00:11:37;16.63;;;11.43;;
9524;SDS011;15940;48.734;9.112;2024-01-07T00:14:04;17.83;;;12.50;;
9524;SDS011;15940;48.734;9.112;2024-01-07T00:16:31;16.23;;;11.50;;
9524;SDS011;15940;48.734;9.112;2024-01-07T00:18:59;16.43;;;11.80;;
9524;SDS011;15940;48.734;9.112;2024-01-07T00:21:27;14.77;;;10.70;;
9524;SDS011;15940;48.734;9.112;2024-01-07T00:23:54;14.10;;;10.60;;
9524;SDS011;15940;48.734;9.112;2024-01-07T00:26:20;14.60;;;11.13;;
9524;SDS011;15940;48.734;9.112;2024-01-07T00:28:47;16.07;;;11.70;;
9524;SDS011;15940;48.734;9.112;2024-01-07T00:31:14;15.63;;;10.70;;
9524;SDS011;15940;48.734;9.112;2024-01-07T00:33:40;13.80;;;10.10;;
9524;SDS011;15940;48.734;9.112;2024-01-07T00:36:07;14.00;;;11.00;;
9524;SDS011;15940;48.734;9.112;2024-01-07T00:38:35;14.50;;;10.70;;
9524;SDS011;15940;48.734;9.112;2024-01-07T00:41:02;13.37;;;11.00;;
9524;SDS011;15940;48.734;9.112;2024-01-07T00:43:29;15.40;;;11.00;;
9524;SDS011;15940;48.734;9.112;2024-01-07T00:45:56;14.63;;;11.50;;
9524;SDS011;15940;48.734;9.112;2024-01-07T00:48:23;15.73;;;11.50;;
9524;SDS011;15940;48.734;9.112;2024-01-07T00:50:49;15.93;;;11.53;;
9524;SDS011;15940;48.734;9.112;2024-01-07T00:53:16;16.23;;;11.47;;
9524;SDS011;15940;48.734;9.112;2024-01-07T00:55:44;13.10;;;9.93;;
9524;SDS011;15940;48.734;9.112;2024-01-07T00:58:11;14.93;;;10.93;;
9524;SDS011;15940;48.734;9.112;2024-01-07T01:00:38;16.70;;;11.53;;
9524;SDS011;15940;48.734;9.112;2024-01-07T01:03:04;17.53;;;12.50;;
9524;SDS011;15940;48.734;9.112;2024-01-07T01:05:31;17.63;;;12.60;;
9524;SDS011;15940;48.734;9.112;2024-01-07T01:07:58;17.40;;;12.20;;
9524;SDS011;15940;48.734;9.112;2024-01-07T01:10:25;17.43;;;12.47;;
9524;SDS011;15940;48.734;9.112;2024-01-07T01:12:53;21.60;;;13.73;;
9524;SDS011;15940;48.734;9.112;2024-01-07T01:15:20;22.33;;;13.20;;
9524;SDS011;15940;48.734;9.112;2024-01-07T01:17:46;30.87;;;13.90;;
9524;SDS011;15940;48.734;9.112;2024-01-07T01:20:13;24.47;;;14.57;;
9524;SDS011;15940;48.734;9.112;2024-01-07T01:22:40;22.17;;;13.67;;
9524;SDS011;15940;48.734;9.112;2024-01-07T01:25:07;38.67;;;13.40;;
9524;SDS011;15940;48.734;9.112;2024-01-07T01:27:35;22.77;;;13.63;;
9524;SDS011;15940;48.734;9.112;2024-01-07T01:30:03;23.80;;;14.70;;
9524;SDS011;15940;48.734;9.112;2024-01-07T01:32:30;42.90;;;13.57;;
9524;SDS011;15940;48.734;9.112;2024-01-07T01:34:57;29.93;;;13.30;;
9524;SDS011;15940;48.734;9.112;2024-01-07T01:37:24;26.73;;;14.47;;
9524;SDS011;15940;48.734;9.112;2024-01-07T01:39:51;39.80;;;14.13;;
9524;SDS011;15940;48.734;9.112;2024-01-07T01:42:18;77.87;;;14.27;;
9524;SDS011;15940;48.734;9.112;2024-01-07T01:44:45;37.57;;;13.63;;
9524;SDS011;15940;48.734;9.112;2024-01-07T01:47:14;29.63;;;13.30;;
9524;SDS011;15940;48.734;9.112;2024-01-07T01:49:41;55.00;;;12.90;;
9524;SDS011;15940;48.734;9.112;2024-01-07T01:52:08;79.57;;;14.63;;
9524;SDS011;15940;48.734;9.112;2024-01-07T01:54:35;80.83;;;16.30;;
9524;SDS011;15940;48.734;9.112;2024-01-07T01:57:02;34.33;;;14.03;;
9524;SDS011;15940;48.734;9.112;2024-01-07T01:59:29;29.20;;;12.83;;
9524;SDS011;15940;48.734;9.112;2024-01-07T02:01:56;35.60;;;13.87;;
9524;SDS011;15940;48.734;9.112;2024-01-07T02:04:25;57.53;;;14.10;;
9524;SDS011;15940;48.734;9.112;2024-01-07T02:06:51;53.70;;;14.33;;
9524;SDS011;15940;48.734;9.112;2024-01-07T02:09:18;32.60;;;13.20;;
9524;SDS011;15940;48.734;9.112;2024-01-07T02:11:48;121.27;;;16.07;;
9524;SDS011;15940;48.734;9.112;2024-01-07T02:14:26;57.80;;;14.00;;
9524;SDS011;15940;48.734;9.112;2024-01-07T02:16:53;84.10;;;14.93;;
9524;SDS011;15940;48.734;9.112;2024-01-07T02:19:19;79.73;;;14.73;;
9524;SDS011;15940;48.734;9.112;2024-01-07T02:21:49;79.20;;;15.30;;
9524;SDS011;15940;48.734;9.112;2024-01-07T02:24:18;27.80;;;13.73;;
9524;SDS011;15940;48.734;9.112;2024-01-07T02:26:44;37.90;;;14.57;;
9524;SDS011;15940;48.734;9.112;2024-01-07T02:29:11;68.70;;;15.83;;
9524;SDS011;15940;48.734;9.112;2024-01-07T02:31:38;88.23;;;15.07;;
9524;SDS011;15940;48.734;9.112;2024-01-07T02:34:05;61.00;;;15.67;;
9524;SDS011;15940;48.734;9.112;2024-01-07T02:36:31;55.43;;;16.40;;
9524;SDS011;15940;48.734;9.112;2024-01-07T02:38:58;172.27;;;19.80;;
9524;SDS011;15940;48.734;9.112;2024-01-07T02:41:26;82.80;;;16.77;;
9524;SDS011;15940;48.734;9.112;2024-01-07T02:43:53;159.50;;;18.70;;
9524;SDS011;15940;48.734;9.112;2024-01-07T02:46:20;41.50;;;15.90;;
9524;SDS011;15940;48.734;9.112;2024-01-07T02:48:48;36.67;;;15.03;;
9524;SDS011;15940;48.734;9.112;2024-01-07T02:51:15;76.87;;;17.47;;
9524;SDS011;15940;48.734;9.112;2024-01-07T02:53:41;28.00;;;14.03;;
9524;SDS011;15940;48.734;9.112;2024-01-07T02:56:08;32.77;;;15.67;;
9524;SDS011;15940;48.734;9.112;2024-01-07T02:58:36;29.53;;;15.73;;
9524;SDS011;15940;48.734;9.112;2024-01-07T03:01:03;24.40;;;14.93;;
9524;SDS011;15940;48.734;9.112;2024-01-07T03:03:34;29.30;;;16.63;;
9524;SDS011;15940;48.734;9.112;2024-01-07T03:06:00;30.90;;;16.87;;
9524;SDS011;15940;48.734;9.112;2024-01-07T03:08:27;28.00;;;16.93;;
9524;SDS011;15940;48.734;9.112;2024-01-07T03:10:54;29.90;;;16.13;;
9524;SDS011;15940;48.734;9.112;2024-01-07T03:13:20;29.47;;;16.60;;
9524;SDS011;15940;48.734;9.112;2024-01-07T03:15:48;30.20;;;16.40;;
9524;SDS011;15940;48.734;9.112;2024-01-07T03:18:15;29.00;;;16.87;;
9524;SDS011;15940;48.734;9.112;2024-01-07T03:20:42;25.23;;;16.10;;
9524;SDS011;15940;48.734;9.112;2024-01-07T03:23:09;29.47;;;17.07;;
9524;SDS011;15940;48.734;9.112;2024-01-07T03:25:35;26.53;;;16.17;;
9524;SDS011;15940;48.734;9.112;2024-01-07T03:28:02;28.53;;;15.83;;
9524;SDS011;15940;48.734;9.112;2024-01-07T03:30:29;26.87;;;15.80;;
9524;SDS011;15940;48.734;9.112;2024-01-07T03:32:57;29.03;;;16.87;;
9524;SDS011;15940;48.734;9.112;2024-01-07T03:35:24;24.97;;;15.10;;
9524;SDS011;15940;48.734;9.112;2024-01-07T03:37:51;29.00;;;17.07;;
9524;SDS011;15940;48.734;9.112;2024-01-07T03:40:18;28.10;;;16.07;;
9524;SDS011;15940;48.734;9.112;2024-01-07T03:42:44;33.43;;;16.80;;
9524;SDS011;15940;48.734;9.112;2024-01-07T03:45:11;28.17;;;16.70;;
9524;SDS011;15940;48.734;9.112;2024-01-07T03:47:38;29.20;;;16.17;;
9524;SDS011;15940;48.734;9.112;2024-01-07T03:50:06;27.27;;;16.03;;
9524;SDS011;15940;48.734;9.112;2024-01-07T03:52:33;29.33;;;16.40;;
9524;SDS011;15940;48.734;9.112;2024-01-07T03:55:01;28.20;;;15.80;;
9524;SDS011;15940;48.734;9.112;2024-01-07T03:57:28;29.43;;;16.03;;
9524;SDS011;15940;48.734;9.112;2024-01-07T03:59:55;26.43;;;16.30;;
9524;SDS011;15940;48.734;9.112;2024-01-07T04:02:22;25.50;;;15.23;;
9524;SDS011;15940;48.734;9.112;2024-01-07T04:04:48;27.83;;;15.30;;
9524;SDS011;15940;48.734;9.112;2024-01-07T04:07:16;29.87;;;15.00;;
9524;SDS011;15940;48.734;9.112;2024-01-07T04:09:43;22.97;;;14.90;;
9524;SDS011;15940;48.734;9.112;2024-01-07T04:12:10;25.53;;;15.70;;
9524;SDS011;15940;48.734;9.112;2024-01-07T04:14:37;26.97;;;16.07;;
9524;SDS011;15940;48.734;9.112;2024-01-07T04:17:03;27.53;;;16.63;;
9524;SDS011;15940;48.734;9.112;2024-01-07T04:19:32;26.10;;;15.37;;
9524;SDS011;15940;48.734;9.112;2024-01-07T04:21:59;25.07;;;14.77;;
9524;SDS011;15940;48.734;9.112;2024-01-07T04:24:27;28.23;;;15.87;;
9524;SDS011;15940;48.734;9.112;2024-01-07T04:26:53;26.13;;;15.50;;
9524;SDS011;15940;48.734;9.112;2024-01-07T04:29:20;27.73;;;14.90;;
9524;SDS011;15940;48.734;9.112;2024-01-07T04:31:47;29.93;;;16.10;;
9524;SDS011;15940;48.734;9.112;2024-01-07T04:34:14;27.93;;;15.13;;
9524;SDS011;15940;48.734;9.112;2024-01-07T04:36:40;22.57;;;14.87;;
9524;SDS011;15940;48.734;9.112;2024-01-07T04:39:07;22.77;;;14.37;;
9524;SDS011;15940;48.734;9.112;2024-01-07T04:41:36;24.03;;;14.40;;
9524;SDS011;15940;48.734;9.112;2024-01-07T04:44:03;23.00;;;13.73;;
9524;SDS011;15940;48.734;9.112;2024-01-07T04:46:29;25.37;;;14.87;;
9524;SDS011;15940;48.734;9.112;2024-01-07T04:49:00;26.07;;;14.87;;
9524;SDS011;15940;48.734;9.112;2024-01-07T04:51:26;24.00;;;14.53;;
9524;SDS011;15940;48.734;9.112;2024-01-07T04:53:53;22.93;;;14.50;;
9524;SDS011;15940;48.734;9.112;2024-01-07T04:56:20;26.57;;;15.50;;
9524;SDS011;15940;48.734;9.112;2024-01-07T04:58:48;24.47;;;15.03;;
9524;SDS011;15940;48.734;9.112;2024-01-07T05:01:15;25.33;;;15.50;;
9524;SDS011;15940;48.734;9.112;2024-01-07T05:03:42;24.07;;;14.57;;
9524;SDS011;15940;48.734;9.112;2024-01-07T05:06:09;25.33;;;15.47;;
9524;SDS011;15940;48.734;9.112;2024-01-07T05:08:35;25.90;;;14.80;;
9524;SDS011;15940;48.734;9.112;2024-01-07T05:11:02;22.97;;;13.47;;
9524;SDS011;15940;48.734;9.112;2024-01-07T05:13:30;23.67;;;14.13;;
9524;SDS011;15940;48.734;9.112;2024-01-07T05:15:58;24.67;;;13.50;;
9524;SDS011;15940;48.734;9.112;2024-01-07T05:18:25;20.27;;;13.40;;
9524;SDS011;15940;48.734;9.112;2024-01-07T05:20:52;24.97;;;13.50;;
9524;SDS011;15940;48.734;9.112;2024-01-07T05:23:18;21.87;;;13.00;;
9524;SDS011;15940;48.734;9.112;2024-01-07T05:25:45;23.40;;;13.43;;
9524;SDS011;15940;48.734;9.112;2024-01-07T05:28:12;20.60;;;13.43;;
9524;SDS011;15940;48.734;9.112;2024-01-07T05:30:39;20.90;;;13.10;;
9524;SDS011;15940;48.734;9.112;2024-01-07T05:33:08;21.43;;;13.13;;
9524;SDS011;15940;48.734;9.112;2024-01-07T05:35:35;22.70;;;12.53;;
9524;SDS011;15940;48.734;9.112;2024-01-07T05:38:02;20.23;;;12.63;;
9524;SDS011;15940;48.734;9.112;2024-01-07T05:40:29;18.60;;;12.27;;
9524;SDS011;15940;48.734;9.112;2024-01-07T05:42:55;20.37;;;12.80;;
9524;SDS011;15940;48.734;9.112;2024-01-07T05:45:22;19.70;;;12.57;;
9524;SDS011;15940;48.734;9.112;2024-01-07T05:47:49;24.33;;;13.27;;
9524;SDS011;15940;48.734;9.112;2024-01-07T05:50:17;22.37;;;12.77;;
9524;SDS011;15940;48.734;9.112;2024-01-07T05:52:45;22.10;;;12.57;;
9524;SDS011;15940;48.734;9.112;2024-01-07T05:55:12;21.87;;;13.23;;
9524;SDS011;15940;48.734;9.112;2024-01-07T05:57:39;22.00;;;13.77;;
9524;SDS011;15940;48.734;9.112;2024-01-07T06:00:06;18.53;;;12.03;;
9524;SDS011;15940;48.734;9.112;2024-01-07T06:02:35;19.63;;;13.20;;
9524;SDS011;15940;48.734;9.112;2024-01-07T06:05:04;20.43;;;12.97;;
9524;SDS011;15940;48.734;9.112;2024-01-07T06:07:32;21.53;;;12.60;;
9524;SDS011;15940;48.734;9.112;2024-01-07T06:09:59;20.57;;;13.07;;
9524;SDS011;15940;48.734;9.112;2024-01-07T06:12:26;20.57;;;12.93;;
9524;SDS011;15940;48.734;9.112;2024-01-07T06:14:53;20.20;;;12.90;;
9524;SDS011;15940;48.734;9.112;2024-01-07T06:17:20;19.33;;;12.83;;
9524;SDS011;15940;48.734;9.112;2024-01-07T06:19:46;19.73;;;12.27;;
9524;SDS011;15940;48.734;9.112;2024-01-07T06:22:13;21.47;;;12.73;;
9524;SDS011;15940;48.734;9.112;2024-01-07T06:24:41;21.53;;;13.20;;
9524;SDS011;15940;48.734;9.112;2024-01-07T06:27:08;20.67;;;12.70;;
9524;SDS011;15940;48.734;9.112;2024-01-07T06:29:35;20.30;;;12.47;;
9524;SDS011;15940;48.734;9.112;2024-01-07T06:32:01;16.60;;;12.30;;
9524;SDS011;15940;48.734;9.112;2024-01-07T06:34:28;21.53;;;13.77;;
9524;SDS011;15940;48.734;9.112;2024-01-07T06:36:55;19.50;;;12.40;;
9524;SDS011;15940;48.734;9.112;2024-01-07T06:39:22;20.63;;;13.70;;
9524;SDS011;15940;48.734;9.112;2024-01-07T06:41:51;24.73;;;13.50;;
9524;SDS011;15940;48.734;9.112;2024-01-07T06:44:18;20.67;;;13.47;;
9524;SDS011;15940;48.734;9.112;2024-01-07T06:46:45;17.50;;;12.87;;
9524;SDS011;15940;48.734;9.112;2024-01-07T06:49:12;21.13;;;14.17;;
9524;SDS011;15940;48.734;9.112;2024-01-07T06:51:38;20.33;;;13.30;;
9524;SDS011;15940;48.734;9.112;2024-01-07T06:54:05;18.27;;;13.03;;
9524;SDS011;15940;48.734;9.112;2024-01-07T06:56:32;17.53;;;12.87;;
9524;SDS011;15940;48.734;9.112;2024-01-07T06:59:00;19.07;;;12.37;;
9524;SDS011;15940;48.734;9.112;2024-01-07T07:01:27;20.10;;;13.27;;
9524;SDS011;15940;48.734;9.112;2024-01-07T07:03:53;18.20;;;13.03;;
9524;SDS011;15940;48.734;9.112;2024-01-07T07:06:20;18.97;;;12.43;;
9524;SDS011;15940;48.734;9.112;2024-01-07T07:08:47;17.07;;;12.57;;
9524;SDS011;15940;48.734;9.112;2024-01-07T07:11:14;20.87;;;13.03;;
9524;SDS011;15940;48.734;9.112;2024-01-07T07:13:40;18.57;;;13.37;;
9524;SDS011;15940;48.734;9.112;2024-01-07T07:16:08;19.47;;;12.47;;
9524;SDS011;15940;48.734;9.112;2024-01-07T07:18:35;19.03;;;12.70;;
9524;SDS011;15940;48.734;9.112;2024-01-07T07:21:02;16.80;;;12.63;;
9524;SDS011;15940;48.734;9.112;2024-01-07T07:23:29;17.50;;;12.43;;
9524;SDS011;15940;48.734;9.112;2024-01-07T07:25:55;17.43;;;12.13;;
9524;SDS011;15940;48.734;9.112;2024-01-07T07:28:22;17.50;;;11.53;;
9524;SDS011;15940;48.734;9.112;2024-01-07T07:30:49;20.47;;;12.40;;
9524;SDS011;15940;48.734;9.112;2024-01-07T07:33:17;15.40;;;11.43;;
9524;SDS011;15940;48.734;9.112;2024-01-07T07:35:44;16.13;;;11.80;;
9524;SDS011;15940;48.734;9.112;2024-01-07T07:38:11;16.30;;;11.37;;
9524;SDS011;15940;48.734;9.112;2024-01-07T07:40:38;15.60;;;10.97;;
9524;SDS011;15940;48.734;9.112;2024-01-07T07:43:04;14.00;;;10.10;;
9524;SDS011;15940;48.734;9.112;2024-01-07T07:45:32;17.00;;;10.63;;
9524;SDS011;15940;48.734;9.112;2024-01-07T07:47:59;13.17;;;9.87;;
9524;SDS011;15940;48.734;9.112;2024-01-07T07:50:27;14.33;;;10.27;;
9524;SDS011;15940;48.734;9.112;2024-01-07T07:52:54;18.57;;;10.60;;
9524;SDS011;15940;48.734;9.112;2024-01-07T07:55:20;14.53;;;9.73;;
9524;SDS011;15940;48.734;9.112;2024-01-07T07:57:47;12.70;;;9.47;;
9524;SDS011;15940;48.734;9.112;2024-01-07T08:00:15;13.50;;;9.30;;
9524;SDS011;15940;48.734;9.112;2024-01-07T08:02:42;11.97;;;8.90;;
9524;SDS011;15940;48.734;9.112;2024-01-07T08:05:09;12.03;;;9.17;;
9524;SDS011;15940;48.734;9.112;2024-01-07T08:07:37;13.20;;;8.60;;
9524;SDS011;15940;48.734;9.112;2024-01-07T08:10:05;14.63;;;8.23;;
9524;SDS011;15940;48.734;9.112;2024-01-07T08:12:33;12.40;;;9.43;;
9524;SDS011;15940;48.734;9.112;2024-01-07T08:14:59;10.00;;;8.47;;
9524;SDS011;15940;48.734;9.112;2024-01-07T08:17:26;9.13;;;7.77;;
9524;SDS011;15940;48.734;9.112;2024-01-07T08:19:53;10.57;;;8.00;;
9524;SDS011;15940;48.734;9.112;2024-01-07T08:22:20;9.77;;;7.70;;
9524;SDS011;15940;48.734;9.112;2024-01-07T08:24:48;10.13;;;7.53;;
9524;SDS011;15940;48.734;9.112;2024-01-07T08:27:15;11.47;;;7.93;;
9524;SDS011;15940;48.734;9.112;2024-01-07T08:29:42;11.27;;;7.47;;
9524;SDS011;15940;48.734;9.112;2024-01-07T08:32:09;11.87;;;7.70;;
9524;SDS011;15940;48.734;9.112;2024-01-07T08:34:37;10.57;;;7.87;;
9524;SDS011;15940;48.734;9.112;2024-01-07T08:37:04;12.00;;;8.10;;
9524;SDS011;15940;48.734;9.112;2024-01-07T08:39:30;10.77;;;8.07;;
9524;SDS011;15940;48.734;9.112;2024-01-07T08:41:59;12.20;;;7.73;;
9524;SDS011;15940;48.734;9.112;2024-01-07T08:44:25;10.13;;;7.60;;
9524;SDS011;15940;48.734;9.112;2024-01-07T08:46:52;12.07;;;7.67;;
9524;SDS011;15940;48.734;9.112;2024-01-07T08:49:19;10.43;;;7.40;;
9524;SDS011;15940;48.734;9.112;2024-01-07T08:51:46;10.83;;;7.90;;
9524;SDS011;15940;48.734;9.112;2024-01-07T08:54:13;12.97;;;9.20;;
9524;SDS011;15940;48.734;9.112;2024-01-07T08:56:39;12.90;;;8.17;;
9524;SDS011;15940;48.734;9.112;2024-01-07T08:59:07;11.57;;;8.33;;
9524;SDS011;15940;48.734;9.112;2024-01-07T09:01:35;12.00;;;8.80;;
9524;SDS011;15940;48.734;9.112;2024-01-07T09:04:02;12.17;;;8.30;;
9524;SDS011;15940;48.734;9.112;2024-01-07T09:06:29;11.00;;;8.27;;
9524;SDS011;15940;48.734;9.112;2024-01-07T09:08:57;12.53;;;8.93;;
9524;SDS011;15940;48.734;9.112;2024-01-07T09:11:24;12.73;;;8.70;;
9524;SDS011;15940;48.734;9.112;2024-01-07T09:13:50;11.20;;;8.33;;
9524;SDS011;15940;48.734;9.112;2024-01-07T09:16:18;10.33;;;7.90;;
9524;SDS011;15940;48.734;9.112;2024-01-07T09:18:45;9.67;;;7.43;;
9524;SDS011;15940;48.734;9.112;2024-01-07T09:21:12;10.93;;;7.73;;
9524;SDS011;15940;48.734;9.112;2024-01-07T09:23:39;10.60;;;7.63;;
9524;SDS011;15940;48.734;9.112;2024-01-07T09:26:06;8.67;;;6.90;;
9524;SDS011;15940;48.734;9.112;2024-01-07T09:28:33;8.73;;;6.70;;
9524;SDS011;15940;48.734;9.112;2024-01-07T09:31:00;8.27;;;6.53;;
9524;SDS011;15940;48.734;9.112;2024-01-07T09:33:28;7.33;;;6.40;;
9524;SDS011;15940;48.734;9.112;2024-01-07T09:35:55;7.37;;;5.93;;
9524;SDS011;15940;48.734;9.112;2024-01-07T09:38:21;6.67;;;5.20;;
9524;SDS011;15940;48.734;9.112;2024-01-07T09:40:49;5.83;;;5.17;;
9524;SDS011;15940;48.734;9.112;2024-01-07T09:43:16;7.87;;;5.70;;
9524;SDS011;15940;48.734;9.112;2024-01-07T09:45:46;6.90;;;5.73;;
9524;SDS011;15940;48.734;9.112;2024-01-07T09:48:13;8.00;;;5.67;;
9524;SDS011;15940;48.734;9.112;2024-01-07T09:50:41;6.43;;;4.57;;
9524;SDS011;15940;48.734;9.112;2024-01-07T09:53:09;6.13;;;4.90;;
9524;SDS011;15940;48.734;9.112;2024-01-07T09:55:45;6.43;;;4.80;;
9524;SDS011;15940;48.734;9.112;2024-01-07T09:58:17;6.70;;;5.00;;
9524;SDS011;15940;48.734;9.112;2024-01-07T10:00:44;5.93;;;4.87;;
9524;SDS011;15940;48.734;9.112;2024-01-07T10:03:11;5.50;;;4.90;;
9524;SDS011;15940;48.734;9.112;2024-01-07T10:05:39;8.43;;;4.93;;
9524;SDS011;15940;48.734;9.112;2024-01-07T10:08:07;8.23;;;5.10;;
9524;SDS011;15940;48.734;9.112;2024-01-07T10:10:33;6.10;;;5.20;;
9524;SDS011;15940;48.734;9.112;2024-01-07T10:13:02;5.20;;;4.37;;
9524;SDS011;15940;48.734;9.112;2024-01-07T10:15:28;4.67;;;4.23;;
9524;SDS011;15940;48.734;9.112;2024-01-07T10:17:55;5.37;;;4.87;;
9524;SDS011;15940;48.734;9.112;2024-01-07T10:20:29;9.53;;;4.80;;
9524;SDS011;15940;48.734;9.112;2024-01-07T10:22:57;6.20;;;5.17;;
9524;SDS011;15940;48.734;9.112;2024-01-07T10:25:25;7.37;;;5.67;;
9524;SDS011;15940;48.734;9.112;2024-01-07T10:27:53;6.50;;;5.37;;
9524;SDS011;15940;48.734;9.112;2024-01-07T10:30:19;7.17;;;5.93;;
9524;SDS011;15940;48.734;9.112;2024-01-07T10:32:47;7.13;;;5.80;;
9524;SDS011;15940;48.734;9.112;2024-01-07T10:35:13;8.63;;;6.57;;
9524;SDS011;15940;48.734;9.112;2024-01-07T10:37:42;7.53;;;5.97;;
9524;SDS011;15940;48.734;9.112;2024-01-07T10:40:11;9.17;;;6.83;;
9524;SDS011;15940;48.734;9.112;2024-01-07T10:42:39;7.67;;;6.40;;
9524;SDS011;15940;48.734;9.112;2024-01-07T10:45:07;9.27;;;6.10;;
9524;SDS011;15940;48.734;9.112;2024-01-07T10:47:35;7.47;;;5.73;;
9524;SDS011;15940;48.734;9.112;2024-01-07T10:50:03;6.57;;;5.47;;
9524;SDS011;15940;48.734;9.112;2024-01-07T10:52:30;7.70;;;5.70;;
9524;SDS011;15940;48.734;9.112;2024-01-07T10:55:02;7.33;;;5.43;;
9524;SDS011;15940;48.734;9.112;2024-01-07T10:57:34;10.00;;;5.70;;
9524;SDS011;15940;48.734;9.112;2024-01-07T11:00:08;8.17;;;5.90;;
9524;SDS011;15940;48.734;9.112;2024-01-07T11:02:46;9.43;;;6.23;;
9524;SDS011;15940;48.734;9.112;2024-01-07T11:05:19;8.93;;;5.63;;
9524;SDS011;15940;48.734;9.112;2024-01-07T11:07:51;8.63;;;6.10;;
9524;SDS011;15940;48.734;9.112;2024-01-07T11:10:22;7.63;;;6.00;;
9524;SDS011;15940;48.734;9.112;2024-01-07T11:12:54;6.30;;;5.40;;
9524;SDS011;15940;48.734;9.112;2024-01-07T11:18:17;8.60;;;5.97;;
9524;SDS011;15940;48.734;9.112;2024-01-07T11:20:44;7.87;;;5.67;;
9524;SDS011;15940;48.734;9.112;2024-01-07T11:23:27;6.80;;;5.60;;
9524;SDS011;15940;48.734;9.112;2024-01-07T11:25:58;7.17;;;5.33;;
9524;SDS011;15940;48.734;9.112;2024-01-07T11:31:21;8.33;;;6.23;;
9524;SDS011;15940;48.734;9.112;2024-01-07T11:34:08;8.43;;;6.47;;
9524;SDS011;15940;48.734;9.112;2024-01-07T11:36:35;8.50;;;5.77;;
9524;SDS011;15940;48.734;9.112;2024-01-07T11:39:02;9.27;;;6.47;;
9524;SDS011;15940;48.734;9.112;2024-01-07T11:41:33;8.10;;;6.40;;
9524;SDS011;15940;48.734;9.112;2024-01-07T11:44:02;7.23;;;5.93;;
9524;SDS011;15940;48.734;9.112;2024-01-07T11:46:29;7.00;;;5.60;;
9524;SDS011;15940;48.734;9.112;2024-01-07T11:48:57;7.73;;;5.83;;
9524;SDS011;15940;48.734;9.112;2024-01-07T11:51:24;7.80;;;6.03;;
9524;SDS011;15940;48.734;9.112;2024-01-07T11:53:52;6.13;;;5.50;;
9524;SDS011;15940;48.734;9.112;2024-01-07T11:56:19;7.00;;;5.73;;
9524;SDS011;15940;48.734;9.112;2024-01-07T11:58:46;6.63;;;5.70;;
9524;SDS011;15940;48.734;9.112;2024-01-07T12:01:15;6.97;;;5.57;;
9524;SDS011;15940;48.734;9.112;2024-01-07T12:03:43;7.03;;;5.60;;
9524;SDS011;15940;48.734;9.112;2024-01-07T12:06:09;6.47;;;5.13;;
9524;SDS011;15940;48.734;9.112;2024-01-07T12:08:38;7.47;;;5.43;;
9524;SDS011;15940;48.734;9.112;2024-01-07T12:11:05;7.10;;;5.60;;
9524;SDS011;15940;48.734;9.112;2024-01-07T12:13:32;7.63;;;6.23;;
9524;SDS011;15940;48.734;9.112;2024-01-07T12:15:59;6.63;;;5.93;;
9524;SDS011;15940;48.734;9.112;2024-01-07T12:18:27;7.70;;;5.60;;
9524;SDS011;15940;48.734;9.112;2024-01-07T12:20:55;7.00;;;5.63;;
9524;SDS011;15940;48.734;9.112;2024-01-07T12:23:21;6.70;;;6.00;;
9524;SDS011;15940;48.734;9.112;2024-01-07T12:25:48;6.63;;;5.60;;
9524;SDS011;15940;48.734;9.112;2024-01-07T12:28:16;7.50;;;6.03;;
9524;SDS011;15940;48.734;9.112;2024-01-07T12:30:43;7.47;;;6.30;;
9524;SDS011;15940;48.734;9.112;2024-01-07T12:33:09;8.43;;;5.87;;
9524;SDS011;15940;48.734;9.112;2024-01-07T12:35:37;7.33;;;5.87;;
9524;SDS011;15940;48.734;9.112;2024-01-07T12:38:04;6.63;;;5.77;;
9524;SDS011;15940;48.734;9.112;2024-01-07T12:40:31;7.87;;;6.77;;
9524;SDS011;15940;48.734;9.112;2024-01-07T12:42:59;9.87;;;6.63;;
9524;SDS011;15940;48.734;9.112;2024-01-07T12:45:27;7.83;;;6.63;;
9524;SDS011;15940;48.734;9.112;2024-01-07T12:47:54;8.60;;;6.57;;
9524;SDS011;15940;48.734;9.112;2024-01-07T12:50:23;9.17;;;6.87;;
9524;SDS011;15940;48.734;9.112;2024-01-07T12:52:54;8.80;;;6.87;;
9524;SDS011;15940;48.734;9.112;2024-01-07T12:55:21;8.87;;;7.43;;
9524;SDS011;15940;48.734;9.112;2024-01-07T12:57:48;9.47;;;6.90;;
9524;SDS011;15940;48.734;9.112;2024-01-07T13:00:15;10.07;;;7.80;;
9524;SDS011;15940;48.734;9.112;2024-01-07T13:02:43;9.03;;;6.93;;
9524;SDS011;15940;48.734;9.112;2024-01-07T13:05:10;11.50;;;7.37;;
9524;SDS011;15940;48.734;9.112;2024-01-07T13:07:37;9.33;;;7.57;;
9524;SDS011;15940;48.734;9.112;2024-01-07T13:10:06;11.10;;;7.90;;
9524;SDS011;15940;48.734;9.112;2024-01-07T13:12:34;9.23;;;7.40;;
9524;SDS011;15940;48.734;9.112;2024-01-07T13:15:01;8.67;;;6.83;;
9524;SDS011;15940;48.734;9.112;2024-01-07T13:17:28;9.37;;;7.23;;
9524;SDS011;15940;48.734;9.112;2024-01-07T13:19:55;9.80;;;7.37;;
9524;SDS011;15940;48.734;9.112;2024-01-07T13:22:22;16.33;;;10.57;;
9524;SDS011;15940;48.734;9.112;2024-01-07T13:24:49;11.97;;;7.93;;
9524;SDS011;15940;48.734;9.112;2024-01-07T13:27:17;12.40;;;8.30;;
9524;SDS011;15940;48.734;9.112;2024-01-07T13:29:44;15.77;;;10.30;;
9524;SDS011;15940;48.734;9.112;2024-01-07T13:32:12;11.47;;;8.53;;
9524;SDS011;15940;48.734;9.112;2024-01-07T13:34:40;11.67;;;8.50;;
9524;SDS011;15940;48.734;9.112;2024-01-07T13:37:06;10.47;;;8.07;;
9524;SDS011;15940;48.734;9.112;2024-01-07T13:39:33;10.70;;;8.23;;
9524;SDS011;15940;48.734;9.112;2024-01-07T13:42:00;13.70;;;9.73;;
9524;SDS011;15940;48.734;9.112;2024-01-07T13:44:28;10.30;;;8.53;;
9524;SDS011;15940;48.734;9.112;2024-01-07T13:46:55;10.00;;;7.70;;
9524;SDS011;15940;48.734;9.112;2024-01-07T13:49:22;8.97;;;7.77;;
9524;SDS011;15940;48.734;9.112;2024-01-07T13:51:48;10.37;;;8.10;;
9524;SDS011;15940;48.734;9.112;2024-01-07T13:54:15;11.27;;;8.43;;
9524;SDS011;15940;48.734;9.112;2024-01-07T13:56:42;11.80;;;8.30;;
9524;SDS011;15940;48.734;9.112;2024-01-07T13:59:09;10.70;;;8.03;;
9524;SDS011;15940;48.734;9.112;2024-01-07T14:01:37;9.37;;;7.60;;
9524;SDS011;15940;48.734;9.112;2024-01-07T14:04:07;9.33;;;7.47;;
9524;SDS011;15940;48.734;9.112;2024-01-07T14:06:34;12.20;;;8.07;;
9524;SDS011;15940;48.734;9.112;2024-01-07T14:09:00;10.27;;;7.63;;
9524;SDS011;15940;48.734;9.112;2024-01-07T14:11:28;11.87;;;8.57;;
9524;SDS011;15940;48.734;9.112;2024-01-07T14:13:55;11.87;;;8.20;;
9524;SDS011;15940;48.734;9.112;2024-01-07T14:16:21;11.40;;;8.43;;
9524;SDS011;15940;48.734;9.112;2024-01-07T14:18:50;10.83;;;8.17;;
9524;SDS011;15940;48.734;9.112;2024-01-07T14:21:17;10.57;;;8.10;;
9524;SDS011;15940;48.734;9.112;2024-01-07T14:23:43;10.93;;;8.30;;
9524;SDS011;15940;48.734;9.112;2024-01-07T14:26:10;11.27;;;8.37;;
9524;SDS011;15940;48.734;9.112;2024-01-07T14:28:37;13.47;;;8.90;;
9524;SDS011;15940;48.734;9.112;2024-01-07T14:31:04;10.97;;;8.60;;
9524;SDS011;15940;48.734;9.112;2024-01-07T14:33:31;11.30;;;8.57;;
9524;SDS011;15940;48.734;9.112;2024-01-07T14:36:00;13.07;;;9.03;;
9524;SDS011;15940;48.734;9.112;2024-01-07T14:38:28;11.67;;;9.23;;
9524;SDS011;15940;48.734;9.112;2024-01-07T14:40:55;10.10;;;7.90;;
9524;SDS011;15940;48.734;9.112;2024-01-07T14:43:22;13.83;;;9.17;;
9524;SDS011;15940;48.734;9.112;2024-01-07T14:45:48;11.73;;;9.30;;
9524;SDS011;15940;48.734;9.112;2024-01-07T14:48:15;14.17;;;9.30;;
9524;SDS011;15940;48.734;9.112;2024-01-07T14:50:42;13.67;;;9.27;;